Airfield :
LOGIN :

Register | Disclaimer

   EN    FR    IT 

 










Legend :    VFR   Marginal VFR   IFR   Intensive IFR   Very Intensive IFR
Visi :
Ceiling :
>= 8 km
>= 3000ft
5 to 8 km
1000 to 3000 ft
1500m to 5 km
500 to 1000 ft
800 to 1500m
200 to 500 ft
< 800m
< 200 ft
Symbols :   Thunderstorms  Fog  Heavy snow  Heavy precipitations  Wind > 20 kt
SIGMETs :     Misc.  Thunderstorms  Icing  Turbulence  Mountain Waves  Volcanic Ashes






- Airport Elevation : 15 ft
- IATA code : JKH


LGHI - Omiros

CURRENT METAR :
  • 021250Z 28008KT 9999 FEW020 SCT030 13/02 Q1009

EXPIRED METARs :
  • 021150Z 30007KT 9999 FEW020 SCT030 14/05 Q1010
  • 021050Z 29009KT 9999 -DZ FEW020 SCT025 13/04 Q1009

TAF TAF LGHI
Valid from the 02 at 12:00 until the 02 at 21:00 UTC


021100Z 0212/0221 28010KT 9999 SCT025
PROB40
TEMPO 0212/0218 5000 RA SCT010 FEW018TCU BKN025
BECMG 0216/0218 34015KT



MET'MAP, your aeronautical weather chart ! - Copyright ORBIFLY December 2007 - Disclaimer

ORBIFLY MET'MAP TEAM :

Programming & Development : Alexandra Zaïnal
Concept & original design : Baudouin d'Aumeries
Assistance for programming : Marc-Olivier Méhu
Technical & hardware support : Manuel Goepfert

Contact : metmap@orbifly.com




SOURCES & CREDITS :

   NOAA